Time;durP1;ratioP1;P1;durP2;ratioP2;P2;SDS_P1;SDS_P2;PMS_P1;PMS_P2;Temp;Humidity;BMP_temperature;BMP_pressure;BME280_temperature;BME280_humidity;BME280_pressure;Samples;Min_cycle;Max_cycle;Signal;HPM_P1;HPM_P2
2023/06/29 00:01:05;;;;;;;31.02;24.80;;;18.70;99.90;;;;;;4919026;29;20040;-86
2023/06/29 00:03:34;;;;;;;38.58;27.25;;;18.70;99.90;;;;;;4902358;29;20035;-87
2023/06/29 00:06:01;;;;;;;33.83;25.77;;;18.70;99.90;;;;;;4898459;29;20557;-86
2023/06/29 00:08:28;;;;;;;34.70;28.10;;;18.60;99.90;;;;;;4887757;29;20063;-86
2023/06/29 00:10:55;;;;;;;35.83;27.83;;;18.60;99.90;;;;;;4903977;29;20060;-86
2023/06/29 00:13:22;;;;;;;40.72;29.10;;;18.60;99.90;;;;;;4871310;29;20546;-86
2023/06/29 00:15:49;;;;;;;40.55;28.35;;;18.60;99.90;;;;;;4884367;29;20129;-86
2023/06/29 00:18:15;;;;;;;35.50;26.08;;;18.60;99.90;;;;;;4901710;29;20039;-86
2023/06/29 00:20:44;;;;;;;35.75;26.52;;;18.60;99.90;;;;;;4886530;29;20094;-86
2023/06/29 00:23:10;;;;;;;36.72;26.42;;;18.60;99.90;;;;;;4890310;29;20048;-86
2023/06/29 00:25:38;;;;;;;34.65;27.15;;;18.60;99.90;;;;;;4916337;29;20136;-86
2023/06/29 00:28:04;;;;;;;41.72;29.27;;;18.60;99.90;;;;;;4888581;29;20119;-86
2023/06/29 00:30:30;;;;;;;40.03;29.35;;;18.60;99.90;;;;;;4886346;29;20043;-86
2023/06/29 00:32:56;;;;;;;42.20;28.92;;;18.60;99.90;;;;;;4901978;29;20669;-86
2023/06/29 00:35:22;;;;;;;39.78;29.42;;;18.60;99.90;;;;;;4891288;29;20039;-86
2023/06/29 00:37:48;;;;;;;38.67;28.77;;;18.60;99.90;;;;;;4901868;29;20055;-86
2023/06/29 00:40:13;;;;;;;38.05;28.80;;;18.60;99.90;;;;;;4898020;29;20111;-87
2023/06/29 00:42:39;;;;;;;36.92;27.38;;;18.60;99.90;;;;;;4901105;29;20047;-86
2023/06/29 00:45:05;;;;;;;42.33;29.70;;;18.60;99.90;;;;;;4902155;29;20495;-86
2023/06/29 00:47:32;;;;;;;36.65;28.48;;;18.60;99.90;;;;;;4901252;29;20146;-86
2023/06/29 00:50:02;;;;;;;39.97;29.58;;;18.60;99.90;;;;;;4898170;29;20063;-86
2023/06/29 00:52:28;;;;;;;40.47;29.10;;;18.60;99.90;;;;;;4894702;29;20067;-85
2023/06/29 00:54:55;;;;;;;40.17;28.02;;;18.60;99.90;;;;;;4905168;29;20076;-86
2023/06/29 00:57:21;;;;;;;37.13;29.08;;;18.60;99.90;;;;;;4899023;29;20144;-85
2023/06/29 00:59:47;;;;;;;36.00;28.63;;;18.60;99.90;;;;;;4915539;29;20484;-85
2023/06/29 01:02:15;;;;;;;41.55;29.58;;;18.50;99.90;;;;;;4899514;29;20052;-85
2023/06/29 01:04:45;;;;;;;36.97;28.98;;;18.60;99.90;;;;;;4900043;29;20122;-86
2023/06/29 01:07:20;;;;;;;38.80;29.08;;;18.60;99.90;;;;;;4915114;29;20048;-85
2023/06/29 01:09:46;;;;;;;42.65;29.75;;;18.60;99.90;;;;;;4915001;29;20115;-85
2023/06/29 01:12:13;;;;;;;41.85;29.77;;;18.50;99.90;;;;;;4914989;29;20527;-86
2023/06/29 01:14:41;;;;;;;41.38;29.00;;;18.50;99.90;;;;;;4899452;29;20426;-86
2023/06/29 01:17:11;;;;;;;37.40;29.52;;;18.60;99.90;;;;;;4899073;29;20040;-86
2023/06/29 01:19:38;;;;;;;37.75;29.65;;;18.50;99.90;;;;;;4914684;29;20048;-85
2023/06/29 01:22:17;;;;;;;44.80;30.77;;;18.50;99.90;;;;;;4883793;29;20439;-85
2023/06/29 01:24:44;;;;;;;40.80;31.35;;;18.50;99.90;;;;;;4898927;29;20044;-85
2023/06/29 01:27:13;;;;;;;40.50;29.13;;;18.50;99.90;;;;;;4883284;29;20497;-86
2023/06/29 01:29:40;;;;;;;38.83;29.02;;;18.50;99.90;;;;;;4898862;29;20553;-85
2023/06/29 01:32:07;;;;;;;39.65;29.17;;;18.50;99.90;;;;;;4883287;29;20047;-85
2023/06/29 01:34:35;;;;;;;41.88;30.15;;;18.50;99.90;;;;;;4898957;29;20149;-85
2023/06/29 01:37:17;;;;;;;39.22;30.00;;;18.50;99.90;;;;;;4898481;29;20054;-85
2023/06/29 01:39:49;;;;;;;39.15;28.98;;;18.50;99.90;;;;;;4914859;29;20054;-85
2023/06/29 01:42:16;;;;;;;39.15;29.80;;;18.50;99.90;;;;;;4898868;29;20079;-85
2023/06/29 01:44:42;;;;;;;41.20;30.42;;;18.50;99.90;;;;;;4883395;29;20044;-85
2023/06/29 01:47:09;;;;;;;39.30;28.35;;;18.50;99.90;;;;;;4898391;29;20135;-86
2023/06/29 01:49:35;;;;;;;43.15;30.75;;;18.50;99.90;;;;;;4882884;29;20502;-85
2023/06/29 01:52:02;;;;;;;43.47;29.60;;;18.50;99.90;;;;;;4883391;29;20067;-85
2023/06/29 01:54:28;;;;;;;41.70;30.08;;;18.50;99.90;;;;;;4910827;29;20052;-85
2023/06/29 01:56:53;;;;;;;41.95;30.83;;;18.50;99.90;;;;;;4923361;29;20048;-85
2023/06/29 01:59:19;;;;;;;35.00;29.23;;;18.50;99.90;;;;;;4882621;29;20040;-85
2023/06/29 02:01:45;;;;;;;39.63;29.52;;;18.50;99.90;;;;;;4897957;29;20047;-86
2023/06/29 02:04:10;;;;;;;39.40;28.92;;;18.50;99.90;;;;;;4900231;29;20079;-85
2023/06/29 02:06:36;;;;;;;45.38;30.58;;;18.50;99.90;;;;;;4882577;29;20051;-85
2023/06/29 02:09:02;;;;;;;39.58;30.48;;;18.50;99.90;;;;;;4913913;29;20063;-85
2023/06/29 02:11:28;;;;;;;40.85;31.27;;;18.40;99.90;;;;;;4898216;29;20052;-85
2023/06/29 02:13:53;;;;;;;39.40;29.63;;;18.40;99.90;;;;;;4898020;29;20494;-85
2023/06/29 02:16:19;;;;;;;40.20;30.95;;;18.40;99.90;;;;;;4898741;29;20055;-85
2023/06/29 02:18:45;;;;;;;40.80;30.98;;;18.40;99.90;;;;;;4898082;29;20036;-85
2023/06/29 02:21:11;;;;;;;42.88;31.10;;;18.40;99.90;;;;;;4882981;29;20152;-85
2023/06/29 02:23:36;;;;;;;40.90;31.10;;;18.40;99.90;;;;;;4898349;29;20044;-85
2023/06/29 02:26:02;;;;;;;39.47;30.55;;;18.40;99.90;;;;;;4867198;29;20426;-85
2023/06/29 02:28:28;;;;;;;43.38;31.98;;;18.40;99.90;;;;;;4882446;29;20048;-85
2023/06/29 02:30:54;;;;;;;42.88;31.67;;;18.40;99.90;;;;;;4898088;29;20044;-86
2023/06/29 02:33:19;;;;;;;41.15;31.65;;;18.40;99.90;;;;;;4892756;29;20128;-86
2023/06/29 02:35:45;;;;;;;41.13;31.25;;;18.40;99.90;;;;;;4882624;29;20092;-85
2023/06/29 02:38:11;;;;;;;40.53;31.92;;;18.40;99.90;;;;;;4898449;29;20044;-85
2023/06/29 02:40:37;;;;;;;41.40;32.30;;;18.40;99.90;;;;;;4883182;29;20036;-86
2023/06/29 02:43:02;;;;;;;40.67;32.03;;;18.40;99.90;;;;;;4864162;29;20395;-85
2023/06/29 02:45:28;;;;;;;40.50;31.48;;;18.40;99.90;;;;;;4872961;29;20040;-86
2023/06/29 02:47:54;;;;;;;39.53;31.23;;;18.40;99.90;;;;;;4898560;29;20082;-86
2023/06/29 02:50:19;;;;;;;43.95;32.28;;;18.40;99.90;;;;;;4898239;29;20112;-86
2023/06/29 02:52:45;;;;;;;42.28;31.08;;;18.40;99.90;;;;;;4887080;29;20124;-86
2023/06/29 02:55:11;;;;;;;42.17;31.77;;;18.40;99.90;;;;;;4919439;29;20051;-85
2023/06/29 02:57:36;;;;;;;43.58;30.88;;;18.40;99.90;;;;;;4913489;29;20044;-85
2023/06/29 03:00:03;;;;;;;45.97;33.00;;;18.40;99.90;;;;;;4884980;29;20036;-86
2023/06/29 03:02:29;;;;;;;40.40;31.33;;;18.40;99.90;;;;;;4918411;29;20036;-85
2023/06/29 03:04:55;;;;;;;43.08;32.28;;;18.40;99.90;;;;;;4901564;29;20375;-86
2023/06/29 03:07:20;;;;;;;41.08;32.70;;;18.40;99.90;;;;;;4901418;29;20051;-86
2023/06/29 03:09:46;;;;;;;41.75;32.20;;;18.40;99.90;;;;;;4870325;29;20040;-86
2023/06/29 03:12:12;;;;;;;43.53;32.95;;;18.30;99.90;;;;;;4901365;29;20048;-86
2023/06/29 03:14:38;;;;;;;45.55;31.27;;;18.30;99.90;;;;;;4901474;29;20799;-85
2023/06/29 03:17:04;;;;;;;45.25;33.30;;;18.30;99.90;;;;;;4885479;29;20047;-86
2023/06/29 03:19:29;;;;;;;39.53;31.63;;;18.30;99.90;;;;;;4885576;29;20067;-85
2023/06/29 03:21:55;;;;;;;42.60;31.92;;;18.30;99.90;;;;;;4869492;29;20486;-86
2023/06/29 03:24:21;;;;;;;41.20;31.75;;;18.30;99.90;;;;;;4885135;29;20127;-85
2023/06/29 03:26:46;;;;;;;42.75;31.73;;;18.30;99.90;;;;;;4885644;29;20044;-85
2023/06/29 03:29:12;;;;;;;43.92;32.13;;;18.30;99.90;;;;;;4917006;29;20044;-85
2023/06/29 03:31:38;;;;;;;41.08;32.30;;;18.30;99.90;;;;;;4885217;29;21333;-86
2023/06/29 03:34:03;;;;;;;44.88;32.67;;;18.30;99.90;;;;;;4885187;29;20052;-85
2023/06/29 03:36:29;;;;;;;40.10;31.83;;;18.30;99.90;;;;;;4900799;29;20048;-85
2023/06/29 03:38:55;;;;;;;42.33;32.83;;;18.30;99.90;;;;;;4884821;29;20037;-85
2023/06/29 03:41:21;;;;;;;37.85;29.98;;;18.30;99.90;;;;;;4875577;29;20481;-85
2023/06/29 03:43:46;;;;;;;43.50;32.47;;;18.30;99.90;;;;;;4894629;29;20044;-84
2023/06/29 03:46:12;;;;;;;42.65;32.30;;;18.30;99.90;;;;;;4869590;29;20052;-85
2023/06/29 03:48:38;;;;;;;45.53;32.10;;;18.30;99.90;;;;;;4900120;29;20417;-85
2023/06/29 03:51:04;;;;;;;43.38;33.00;;;18.40;99.90;;;;;;4900133;29;20052;-85
2023/06/29 03:53:30;;;;;;;45.45;31.27;;;18.40;99.90;;;;;;4884739;29;20086;-84
2023/06/29 03:55:56;;;;;;;45.10;33.15;;;18.40;99.90;;;;;;4900512;29;20084;-85
2023/06/29 03:58:22;;;;;;;42.42;31.23;;;18.40;99.90;;;;;;4884558;29;20126;-86
2023/06/29 04:00:47;;;;;;;40.38;31.55;;;18.40;99.90;;;;;;4884396;29;20047;-86
2023/06/29 04:03:13;;;;;;;44.90;33.72;;;18.40;99.90;;;;;;4900374;29;20036;-85
2023/06/29 04:05:39;;;;;;;39.70;32.55;;;18.40;99.90;;;;;;4900007;29;20457;-85
2023/06/29 04:08:05;;;;;;;41.90;32.45;;;18.40;99.90;;;;;;4884449;29;20052;-85
2023/06/29 04:10:34;;;;;;;39.60;31.65;;;18.50;99.90;;;;;;4899200;29;20056;-85
2023/06/29 04:13:00;;;;;;;40.25;30.75;;;18.50;99.90;;;;;;4900148;29;20397;-86
2023/06/29 04:15:26;;;;;;;42.63;33.30;;;18.50;99.90;;;;;;4899721;29;20398;-86
2023/06/29 04:17:52;;;;;;;45.08;31.85;;;18.50;99.90;;;;;;4899036;29;20048;-86
2023/06/29 04:20:18;;;;;;;39.95;32.10;;;18.50;99.90;;;;;;4903828;29;20126;-86
2023/06/29 04:22:44;;;;;;;42.28;31.65;;;18.50;99.90;;;;;;4915969;29;20569;-86
2023/06/29 04:25:10;;;;;;;42.95;31.90;;;18.50;99.90;;;;;;4884059;29;20046;-85
2023/06/29 04:27:36;;;;;;;39.78;31.30;;;18.50;99.90;;;;;;4899799;29;20040;-85
2023/06/29 04:30:03;;;;;;;46.20;31.92;;;18.60;99.90;;;;;;4884171;29;20044;-85
2023/06/29 04:32:30;;;;;;;42.35;30.83;;;18.60;99.90;;;;;;4899950;29;20071;-85
2023/06/29 04:34:55;;;;;;;40.30;31.15;;;18.60;99.90;;;;;;4905333;29;20051;-86
2023/06/29 04:37:21;;;;;;;43.88;30.48;;;18.60;99.90;;;;;;4915377;29;20413;-86
2023/06/29 04:39:47;;;;;;;39.72;31.60;;;18.60;99.90;;;;;;4884741;29;20036;-85
2023/06/29 04:42:17;;;;;;;42.65;31.10;;;18.60;99.90;;;;;;4915178;29;20114;-86
2023/06/29 04:44:44;;;;;;;42.90;30.88;;;18.60;99.90;;;;;;4899857;29;20421;-85
2023/06/29 04:47:10;;;;;;;42.28;31.25;;;18.70;99.90;;;;;;4916424;29;20075;-85
2023/06/29 04:49:37;;;;;;;41.92;31.88;;;18.70;99.90;;;;;;4918582;29;20135;-85
2023/06/29 04:52:09;;;;;;;38.63;31.10;;;18.70;99.90;;;;;;4885801;29;20074;-85
2023/06/29 04:54:35;;;;;;;42.22;31.65;;;18.80;99.90;;;;;;4899877;29;20498;-85
2023/06/29 04:57:01;;;;;;;40.88;30.75;;;18.80;99.90;;;;;;4899259;29;20058;-86
2023/06/29 04:59:31;;;;;;;44.40;31.65;;;18.90;99.90;;;;;;4899406;29;20409;-85
2023/06/29 05:01:56;;;;;;;42.67;32.58;;;18.90;99.90;;;;;;4891020;29;20040;-84
2023/06/29 05:04:22;;;;;;;42.83;32.63;;;19.00;99.90;;;;;;4899557;29;20043;-86
2023/06/29 05:06:48;;;;;;;44.75;32.63;;;19.00;99.90;;;;;;4899112;29;20521;-85
2023/06/29 05:09:15;;;;;;;44.00;32.35;;;19.10;99.90;;;;;;4899144;29;20481;-85
2023/06/29 05:11:41;;;;;;;47.45;32.70;;;19.20;99.90;;;;;;4915127;29;20087;-87
2023/06/29 05:14:07;;;;;;;44.00;33.58;;;19.20;99.90;;;;;;4864803;29;20044;-85
2023/06/29 05:16:33;;;;;;;45.65;33.40;;;19.30;99.90;;;;;;4879458;29;20049;-85
2023/06/29 05:18:58;;;;;;;42.53;32.67;;;19.30;99.90;;;;;;4893740;29;20044;-85
2023/06/29 05:21:26;;;;;;;43.38;32.55;;;19.30;99.90;;;;;;4904821;29;20410;-85
2023/06/29 05:23:52;;;;;;;47.05;32.60;;;19.40;99.90;;;;;;4904614;29;20048;-85
2023/06/29 05:26:18;;;;;;;40.90;31.75;;;19.40;99.90;;;;;;4914057;29;20429;-84
2023/06/29 05:28:43;;;;;;;45.80;32.55;;;19.40;99.90;;;;;;4914517;29;20048;-85
2023/06/29 05:31:09;;;;;;;44.80;32.55;;;19.40;99.90;;;;;;4883018;29;20083;-86
2023/06/29 05:33:35;;;;;;;45.13;32.97;;;19.50;99.90;;;;;;4882904;29;20044;-85
2023/06/29 05:36:02;;;;;;;49.72;32.42;;;19.50;99.90;;;;;;4913981;29;20043;-86
2023/06/29 05:38:29;;;;;;;45.63;31.58;;;19.50;99.90;;;;;;4880305;29;20045;-86
2023/06/29 05:40:55;;;;;;;46.65;33.20;;;19.50;99.90;;;;;;4933601;29;20047;-85
2023/06/29 05:43:22;;;;;;;46.92;33.83;;;19.50;99.90;;;;;;4901850;29;20040;-86
2023/06/29 05:45:47;;;;;;;42.42;32.20;;;19.50;99.90;;;;;;4913163;29;20048;-86
2023/06/29 05:48:13;;;;;;;46.28;31.95;;;19.60;99.90;;;;;;4927728;29;20058;-85
2023/06/29 05:50:39;;;;;;;47.55;32.28;;;19.60;99.90;;;;;;4911131;29;20115;-86
2023/06/29 05:53:05;;;;;;;45.45;31.42;;;19.60;99.90;;;;;;4914032;29;20048;-87
2023/06/29 05:55:30;;;;;;;43.13;31.60;;;19.60;99.90;;;;;;4898478;29;20401;-87
2023/06/29 05:57:56;;;;;;;43.78;30.85;;;19.70;99.90;;;;;;4882966;29;20048;-85
2023/06/29 06:00:22;;;;;;;42.85;31.33;;;19.80;99.90;;;;;;4898246;29;20130;-86
2023/06/29 06:02:48;;;;;;;42.67;30.25;;;19.80;99.90;;;;;;4898708;29;20044;-85
2023/06/29 06:05:14;;;;;;;42.92;29.90;;;19.90;99.90;;;;;;4915944;29;20051;-86
2023/06/29 06:07:39;;;;;;;40.15;29.30;;;20.00;99.90;;;;;;4898642;29;20076;-86
2023/06/29 06:10:05;;;;;;;38.28;28.35;;;20.10;99.90;;;;;;4898509;29;20044;-86
2023/06/29 06:12:31;;;;;;;38.33;29.25;;;20.20;99.90;;;;;;4904390;29;20036;-86
2023/06/29 06:14:57;;;;;;;39.65;28.83;;;20.20;99.90;;;;;;4902301;29;20494;-87
2023/06/29 06:17:23;;;;;;;39.45;28.10;;;20.30;99.90;;;;;;4878326;29;20059;-85
2023/06/29 06:19:49;;;;;;;37.95;28.17;;;20.40;99.90;;;;;;4925022;29;20044;-85
2023/06/29 06:22:15;;;;;;;41.28;28.08;;;20.40;99.90;;;;;;4914054;29;20107;-85
2023/06/29 06:24:40;;;;;;;37.92;26.67;;;20.50;99.90;;;;;;4898472;29;20075;-86
2023/06/29 06:27:07;;;;;;;37.50;27.20;;;20.60;99.90;;;;;;4882932;29;20413;-85
2023/06/29 06:29:33;;;;;;;40.90;26.92;;;20.70;99.90;;;;;;4880165;29;20116;-86
2023/06/29 06:31:58;;;;;;;35.88;27.02;;;20.70;99.90;;;;;;4893193;29;20109;-85
2023/06/29 06:34:24;;;;;;;34.38;26.95;;;20.70;99.90;;;;;;4915781;29;20442;-86
2023/06/29 06:36:51;;;;;;;36.58;27.23;;;20.70;99.90;;;;;;4902023;29;20645;-85
2023/06/29 06:39:16;;;;;;;36.92;26.77;;;20.70;99.90;;;;;;4902173;29;20044;-85
2023/06/29 06:41:42;;;;;;;40.70;27.48;;;20.60;99.90;;;;;;4886538;29;20044;-85
2023/06/29 06:44:08;;;;;;;36.97;27.38;;;20.60;99.90;;;;;;4904017;29;20044;-86
2023/06/29 06:46:34;;;;;;;40.13;27.35;;;20.60;99.90;;;;;;4902134;29;20040;-85
2023/06/29 06:49:00;;;;;;;37.45;26.70;;;20.50;99.90;;;;;;4901866;29;20498;-85
2023/06/29 06:51:27;;;;;;;35.90;26.77;;;20.50;99.90;;;;;;4886129;29;20060;-83
2023/06/29 06:53:54;;;;;;;34.78;26.50;;;20.50;99.90;;;;;;4901977;29;20060;-86
2023/06/29 06:56:19;;;;;;;37.80;27.42;;;20.50;99.90;;;;;;4901081;29;20052;-85
2023/06/29 06:58:45;;;;;;;36.97;26.38;;;20.50;99.90;;;;;;4900737;29;20051;-85
2023/06/29 07:01:11;;;;;;;38.22;26.30;;;20.40;99.90;;;;;;4885685;29;20050;-84
2023/06/29 07:03:37;;;;;;;36.47;26.40;;;20.40;99.90;;;;;;4901133;29;20040;-85
2023/06/29 07:06:02;;;;;;;36.72;25.90;;;20.40;99.90;;;;;;4901110;29;20111;-85
2023/06/29 07:08:28;;;;;;;35.75;25.52;;;20.40;99.90;;;;;;4885049;29;20051;-84
2023/06/29 07:10:54;;;;;;;38.03;26.50;;;20.30;99.90;;;;;;4900843;29;20056;-84
2023/06/29 07:13:19;;;;;;;37.13;25.63;;;20.30;99.90;;;;;;4916647;29;20048;-85
2023/06/29 07:15:48;;;;;;;35.60;26.48;;;20.30;99.90;;;;;;4885008;29;20040;-85
2023/06/29 07:18:14;;;;;;;38.67;27.00;;;20.30;99.90;;;;;;4900911;29;20048;-85
2023/06/29 07:20:40;;;;;;;36.80;25.80;;;20.30;99.90;;;;;;4885021;29;20047;-86
2023/06/29 07:23:05;;;;;;;39.10;27.83;;;20.20;99.90;;;;;;4900837;29;20051;-86
2023/06/29 07:25:31;;;;;;;37.70;26.27;;;20.20;99.90;;;;;;4885303;29;20143;-86
2023/06/29 07:27:57;;;;;;;38.97;27.27;;;20.20;99.90;;;;;;4916780;29;20052;-85
2023/06/29 07:30:23;;;;;;;36.40;26.45;;;20.20;99.90;;;;;;4885220;29;20051;-85
2023/06/29 07:32:49;;;;;;;39.08;27.73;;;20.20;99.90;;;;;;4915859;29;20059;-85
2023/06/29 07:35:15;;;;;;;42.58;28.83;;;20.20;99.90;;;;;;4869753;29;20047;-85
2023/06/29 07:37:41;;;;;;;37.90;28.25;;;20.10;99.90;;;;;;4902971;29;20067;-85
2023/06/29 07:40:07;;;;;;;42.00;28.48;;;20.10;99.90;;;;;;4902999;29;20442;-85
2023/06/29 07:42:32;;;;;;;42.22;27.13;;;20.10;99.90;;;;;;4885100;29;20044;-85
2023/06/29 07:44:58;;;;;;;41.95;28.88;;;20.10;99.90;;;;;;4915652;29;20790;-85
2023/06/29 07:47:24;;;;;;;39.03;28.83;;;20.10;99.90;;;;;;4920383;29;20040;-86
2023/06/29 07:49:50;;;;;;;41.53;28.77;;;20.20;99.90;;;;;;4916190;29;20056;-85
2023/06/29 07:52:16;;;;;;;46.20;30.83;;;20.30;99.90;;;;;;4916727;29;20442;-86
2023/06/29 07:54:42;;;;;;;43.40;30.73;;;20.30;99.90;;;;;;4885411;29;20135;-86
2023/06/29 07:57:08;;;;;;;44.20;29.95;;;20.40;99.90;;;;;;4884975;29;20671;-85
2023/06/29 07:59:33;;;;;;;38.78;29.45;;;20.50;99.90;;;;;;4909045;29;20042;-86
2023/06/29 08:01:59;;;;;;;43.50;29.83;;;20.50;99.90;;;;;;4919245;29;20450;-85
2023/06/29 08:04:25;;;;;;;43.80;30.98;;;20.60;99.90;;;;;;4915778;29;20095;-85
2023/06/29 08:06:50;;;;;;;41.70;30.73;;;20.70;99.90;;;;;;4900062;29;20075;-84
2023/06/29 08:09:16;;;;;;;42.88;30.77;;;20.80;99.90;;;;;;4900399;29;20035;-84
2023/06/29 08:11:42;;;;;;;43.47;31.02;;;20.90;99.90;;;;;;4900151;29;20054;-85
2023/06/29 08:14:07;;;;;;;46.17;32.08;;;21.00;99.90;;;;;;4865618;29;20048;-85
2023/06/29 08:16:33;;;;;;;49.83;32.88;;;21.00;99.90;;;;;;4868989;29;20446;-85
2023/06/29 08:18:59;;;;;;;46.65;33.35;;;21.00;99.90;;;;;;4899834;29;20047;-85
2023/06/29 08:21:25;;;;;;;44.03;31.92;;;21.10;99.90;;;;;;4884420;29;20042;-85
2023/06/29 08:23:51;;;;;;;47.20;32.53;;;21.00;99.90;;;;;;4884972;29;20127;-86
2023/06/29 08:26:17;;;;;;;44.15;32.58;;;21.10;99.90;;;;;;4900042;29;20036;-86
2023/06/29 08:28:43;;;;;;;47.30;32.45;;;21.00;99.90;;;;;;4900299;29;20043;-85
2023/06/29 08:31:09;;;;;;;46.53;33.75;;;21.00;99.90;;;;;;4914692;29;20536;-86
2023/06/29 08:33:35;;;;;;;46.42;33.05;;;20.90;99.90;;;;;;4882475;29;20075;-85
2023/06/29 08:36:01;;;;;;;46.78;33.05;;;20.90;99.90;;;;;;4899788;29;20489;-85
2023/06/29 08:38:26;;;;;;;48.63;33.47;;;20.90;99.90;;;;;;4899743;29;20056;-84
2023/06/29 08:40:52;;;;;;;49.70;35.15;;;20.80;99.90;;;;;;4909198;29;20475;-86
2023/06/29 08:43:18;;;;;;;48.20;34.78;;;20.80;99.90;;;;;;4891973;29;20048;-86
2023/06/29 08:45:45;;;;;;;51.80;35.38;;;20.80;99.90;;;;;;4899092;29;20055;-86
2023/06/29 08:48:17;;;;;;;50.47;36.05;;;20.80;99.90;;;;;;4883605;29;20088;-85
2023/06/29 08:50:59;;;;;;;;;;;20.90;99.90;;;;;;4923356;29;20162;-85
2023/06/29 08:53:26;;;;;;;51.38;33.97;;;21.00;99.90;;;;;;4949833;29;19919;-84
2023/06/29 08:55:53;;;;;;;51.22;33.92;;;21.10;99.90;;;;;;4898382;29;20105;-86
2023/06/29 08:58:21;;;;;;;46.03;34.85;;;21.20;99.90;;;;;;4914693;29;20047;-85
2023/06/29 09:00:48;;;;;;;47.33;33.75;;;21.30;99.90;;;;;;4899152;29;20048;-85
2023/06/29 09:03:14;;;;;;;49.50;33.28;;;21.40;99.90;;;;;;4915523;29;20598;-86
2023/06/29 09:05:45;;;;;;;47.35;31.83;;;21.50;99.90;;;;;;4903745;29;20369;-85
2023/06/29 09:08:11;;;;;;;41.95;32.13;;;21.50;99.90;;;;;;4899538;29;20051;-85
2023/06/29 09:10:42;;;;;;;46.85;32.10;;;21.60;99.90;;;;;;4914878;29;20132;-84
2023/06/29 09:13:09;;;;;;;40.60;30.80;;;21.70;99.90;;;;;;4899174;29;20524;-85
2023/06/29 09:15:37;;;;;;;44.97;31.63;;;21.70;99.90;;;;;;4899268;29;20689;-85
2023/06/29 09:18:03;;;;;;;46.25;31.95;;;21.70;99.90;;;;;;4898967;29;20075;-85
2023/06/29 09:20:36;;;;;;;41.80;31.15;;;21.80;99.90;;;;;;4899239;29;20513;-85
2023/06/29 09:23:05;;;;;;;39.97;29.95;;;21.80;99.90;;;;;;4914936;29;20043;-86
2023/06/29 09:25:33;;;;;;;41.78;27.95;;;21.80;99.90;;;;;;4899155;29;20143;-85
2023/06/29 09:28:04;;;;;;;40.60;30.65;;;21.80;99.90;;;;;;4914497;29;20107;-87
2023/06/29 09:30:35;;;;;;;41.75;28.23;;;21.70;99.90;;;;;;4913759;29;20055;-87
2023/06/29 09:33:06;;;;;;;39.08;28.30;;;21.70;99.90;;;;;;4898961;29;20708;-86
2023/06/29 09:35:32;;;;;;;39.53;27.83;;;21.70;99.90;;;;;;4898968;29;20048;-83
2023/06/29 09:38:01;;;;;;;42.33;28.77;;;21.60;99.90;;;;;;4883526;29;20067;-85
2023/06/29 09:40:28;;;;;;;39.53;28.63;;;21.60;99.90;;;;;;4898422;29;20036;-85
2023/06/29 09:42:53;;;;;;;38.05;28.27;;;21.70;99.90;;;;;;4914462;29;20123;-87
2023/06/29 09:45:19;;;;;;;38.13;28.75;;;21.80;99.90;;;;;;4914541;29;20554;-86
2023/06/29 09:47:49;;;;;;;36.92;26.40;;;21.90;99.90;;;;;;4898820;29;20044;-86
2023/06/29 09:50:19;;;;;;;35.70;25.55;;;22.00;99.90;;;;;;4898079;29;20129;-85
2023/06/29 09:52:50;;;;;;;35.17;26.02;;;22.00;99.90;;;;;;4914118;29;20044;-86
2023/06/29 09:55:17;;;;;;;34.33;26.50;;;22.00;99.90;;;;;;4904736;29;20502;-86
2023/06/29 09:57:49;;;;;;;34.60;25.20;;;22.10;99.90;;;;;;4895458;29;20053;-84
2023/06/29 10:00:15;;;;;;;37.90;25.52;;;22.10;99.90;;;;;;4912579;29;20122;-85
2023/06/29 10:02:42;;;;;;;37.78;26.35;;;22.00;99.90;;;;;;4898315;29;20048;-85
2023/06/29 10:05:09;;;;;;;37.88;27.08;;;22.00;99.90;;;;;;4898426;29;20036;-85
2023/06/29 10:07:36;;;;;;;36.80;25.95;;;22.00;99.90;;;;;;4900689;29;20048;-86
2023/06/29 10:10:06;;;;;;;35.03;26.98;;;21.90;99.90;;;;;;4901588;29;20640;-85
2023/06/29 10:12:33;;;;;;;37.25;27.70;;;21.90;99.90;;;;;;4902583;29;20135;-86
2023/06/29 10:15:08;;;;;;;36.75;26.38;;;21.90;99.90;;;;;;4902645;29;20118;-84
2023/06/29 10:18:13;;;;;;;33.17;24.73;;;21.80;99.90;;;;;;4902284;29;20059;-86
2023/06/29 10:20:43;;;;;;;34.83;24.23;;;21.70;99.90;;;;;;4888033;29;20494;-84
2023/06/29 10:23:12;;;;;;;31.17;22.88;;;21.60;99.90;;;;;;4902811;29;20564;-85
2023/06/29 10:25:43;;;;;;;33.97;22.48;;;21.50;99.90;;;;;;4900496;29;20048;-84
2023/06/29 10:28:09;;;;;;;36.80;22.98;;;21.40;99.90;;;;;;4934084;29;20052;-85
2023/06/29 10:30:59;;;;;;;32.90;24.80;;;21.40;99.90;;;;;;4900433;29;20048;-85
2023/06/29 10:33:26;;;;;;;36.08;25.92;;;21.30;99.90;;;;;;4916416;29;20058;-84
2023/06/29 10:35:57;;;;;;;34.05;24.27;;;21.20;99.90;;;;;;4900945;29;20054;-83
2023/06/29 10:38:31;;;;;;;36.30;24.77;;;21.20;99.90;;;;;;4901315;29;20047;-86
2023/06/29 10:40:57;;;;;;;35.95;25.00;;;21.10;99.90;;;;;;4901688;29;20276;-83
2023/06/29 10:43:26;;;;;;;34.50;25.48;;;21.10;99.90;;;;;;4886687;29;20466;-84
2023/06/29 10:45:52;;;;;;;34.50;25.33;;;21.00;99.90;;;;;;4886431;29;20051;-84
2023/06/29 10:48:17;;;;;;;32.80;24.65;;;20.90;99.90;;;;;;4902236;29;20047;-85
2023/06/29 10:50:45;;;;;;;35.40;24.60;;;20.90;99.90;;;;;;4908217;29;20060;-84
2023/06/29 10:53:16;;;;;;;38.47;25.65;;;20.80;99.90;;;;;;4902191;29;20450;-85
2023/06/29 10:55:53;;;;;;;35.22;24.90;;;20.80;99.90;;;;;;4886208;29;20048;-86
2023/06/29 10:58:28;;;;;;;35.47;25.15;;;20.90;99.90;;;;;;4917735;29;20076;-85
2023/06/29 11:00:55;;;;;;;37.33;25.52;;;20.90;99.90;;;;;;4917516;29;20091;-85
2023/06/29 11:03:23;;;;;;;38.53;26.50;;;20.90;99.90;;;;;;4909340;29;20036;-85
2023/06/29 11:05:50;;;;;;;40.13;26.33;;;20.90;99.90;;;;;;4885998;29;20075;-85
2023/06/29 11:08:16;;;;;;;36.72;26.63;;;21.00;99.90;;;;;;4901782;29;20044;-85
2023/06/29 11:10:42;;;;;;;38.88;27.20;;;21.00;99.90;;;;;;4901974;29;20067;-85
2023/06/29 11:13:09;;;;;;;37.53;25.55;;;21.00;99.90;;;;;;4901523;29;20075;-86
2023/06/29 11:15:35;;;;;;;41.92;28.65;;;21.10;99.90;;;;;;4886080;29;20087;-85
2023/06/29 11:18:08;;;;;;;40.65;27.27;;;21.20;99.90;;;;;;4901196;29;20083;-85
2023/06/29 11:20:37;;;;;;;41.22;27.92;;;21.20;99.90;;;;;;4901462;29;20039;-87
2023/06/29 11:23:03;;;;;;;39.25;28.23;;;21.30;99.90;;;;;;4901397;29;20098;-81
2023/06/29 11:25:30;;;;;;;41.33;28.10;;;21.40;99.90;;;;;;4886251;29;20051;-87
2023/06/29 11:27:56;;;;;;;41.42;28.38;;;21.50;99.90;;;;;;4917061;29;20052;-85
2023/06/29 11:30:22;;;;;;;40.78;28.60;;;21.60;99.90;;;;;;4920742;29;20642;-85
2023/06/29 11:32:50;;;;;;;43.47;29.20;;;21.60;99.90;;;;;;4917136;29;20059;-85
2023/06/29 11:35:21;;;;;;;40.17;29.23;;;21.70;99.90;;;;;;4900635;29;20134;-86
2023/06/29 11:37:49;;;;;;;40.13;28.08;;;21.80;99.90;;;;;;4900743;29;20064;-84
2023/06/29 11:40:20;;;;;;;38.40;28.33;;;21.90;99.90;;;;;;4900445;29;20130;-85
2023/06/29 11:42:46;;;;;;;39.38;28.48;;;22.00;99.90;;;;;;4901060;29;20514;-87
2023/06/29 11:45:13;;;;;;;41.72;29.10;;;22.10;99.90;;;;;;4901636;29;20044;-85
2023/06/29 11:47:38;;;;;;;38.88;28.10;;;22.20;99.90;;;;;;4916926;29;20076;-85
2023/06/29 11:50:07;;;;;;;38.67;28.60;;;22.30;99.90;;;;;;4885332;29;20056;-84
2023/06/29 11:52:34;;;;;;;35.90;26.92;;;22.40;99.90;;;;;;4900699;29;20047;-85
2023/06/29 11:55:04;;;;;;;37.38;27.80;;;22.50;99.90;;;;;;4885443;29;20490;-86
2023/06/29 11:57:31;;;;;;;38.35;28.13;;;22.60;99.90;;;;;;4900830;29;20078;-84
2023/06/29 11:59:57;;;;;;;39.67;28.70;;;22.60;99.90;;;;;;4901038;29;20079;-85
2023/06/29 12:02:23;;;;;;;35.90;27.52;;;22.50;99.90;;;;;;4904221;29;20071;-85
2023/06/29 12:04:58;;;;;;;38.85;28.52;;;22.50;99.90;;;;;;4909760;29;20402;-84
2023/06/29 12:07:37;;;;;;;42.90;28.52;;;22.50;99.90;;;;;;4915922;29;20043;-85
2023/06/29 12:10:05;;;;;;;41.50;28.08;;;22.60;99.90;;;;;;4902645;29;20080;-83
2023/06/29 12:12:48;;;;;;;39.72;28.70;;;22.70;99.90;;;;;;4916029;29;20405;-87
2023/06/29 12:15:25;;;;;;;37.72;28.52;;;22.80;99.90;;;;;;4917143;29;20141;-87
2023/06/29 12:17:51;;;;;;;37.38;27.08;;;22.90;99.90;;;;;;4901425;29;20494;-87
2023/06/29 12:20:21;;;;;;;37.90;28.13;;;23.00;99.90;;;;;;4886638;29;20063;-87
2023/06/29 12:22:49;;;;;;;37.28;28.73;;;23.20;99.90;;;;;;4917235;29;20402;-85
2023/06/29 12:25:17;;;;;;;37.65;27.75;;;23.20;99.90;;;;;;4916981;29;20522;-85
2023/06/29 12:27:45;;;;;;;39.47;27.75;;;23.30;99.90;;;;;;4916885;29;20502;-85